Latest Weather Observations for Applethorpe

IDQ60801

Issued at 9:02 pm EST Thursday 27 April 2017 (issued every 30 minutes, with the page automatically refreshed every 10 minutes)

About weather observations | Map of weather stations | Latest weather observations for QLD | Other Formats
Station Details ID: 041175 Name: APPLETHORPE Lat: -28.62 Lon: 151.95 Height: 871.6 m
Data from the previous 72 hours. | See also: Recent months at Applethorpe
Date/Time
EST
Temp
°C
App
Temp
°C
Dew
Point
°C
Rel
Hum
%
Delta-T
°C
Wind Press
QNH
hPa
Press
MSL
hPa
Rain since
9am
mm
Dir  Spd
km/h
Gust
km/h
Spd
kts
Gust
kts
27/09:00pm 7.3 4.5 5.2 86 1.0 WSW 9 15 5 8 1018.1 1015.3 0.0
27/08:30pm 7.3 4.9 5.2 86 1.0 WSW 7 11 4 6 1017.9 1015.1 0.0
27/08:00pm 7.7 4.9 5.1 83 1.2 SW 9 15 5 8 1017.5 1014.7 0.0
27/07:30pm 7.6 4.9 5.5 86 1.0 WSW 9 13 5 7 1017.4 1014.6 0.0
27/07:00pm 7.7 5.4 5.6 86 1.0 WSW 7 13 4 7 1016.9 1014.1 0.0
27/06:30pm 8.1 5.8 5.6 84 1.2 WSW 7 11 4 6 1016.7 1013.9 0.0
27/06:00pm 8.5 5.8 5.8 83 1.3 WSW 9 15 5 8 1016.5 1013.7 0.0
27/05:30pm 9.1 6.4 5.8 80 1.6 WSW 9 17 5 9 1016.2 1013.4 0.0
27/05:00pm 10.0 6.4 4.9 70 2.4 WSW 13 20 7 11 1015.8 1013.0 0.0
27/04:30pm 10.9 7.3 5.1 67 2.8 SW 13 26 7 14 1015.5 1012.7 0.0
27/04:00pm 11.9 8.6 4.6 61 3.5 WSW 11 20 6 11 1015.0 1012.1 0.0
27/03:30pm 12.1 8.2 3.3 55 4.1 SW 13 20 7 11 1014.9 1012.0 0.0
27/03:00pm 12.0 8.2 3.7 57 3.9 WSW 13 22 7 12 1014.8 1011.9 0.0
27/02:30pm 12.8 9.3 3.7 54 4.3 WSW 11 19 6 10 1014.4 1011.6 0.0
27/02:00pm 12.9 9.6 4.4 56 4.1 WSW 11 19 6 10 1014.3 1011.5 0.0
27/01:30pm 13.1 9.9 4.9 57 4.0 WSW 11 22 6 12 1014.3 1011.5 0.0
27/01:00pm 11.7 8.0 4.3 60 3.5 WSW 13 22 7 12 1014.8 1011.9 0.0
27/12:30pm 12.4 9.0 4.0 56 4.0 W 11 24 6 13 1015.0 1012.1 0.0
27/12:00pm 12.3 8.4 3.3 54 4.2 SW 13 22 7 12 1015.0 1012.1 0.0
27/11:30am 12.1 9.0 3.8 57 3.9 WSW 9 17 5 9 1015.5 1012.7 0.0
27/11:00am 11.5 8.1 3.8 59 3.6 SW 11 17 6 9 1015.8 1013.0 0.0
27/10:30am 10.8 7.2 3.2 59 3.5 SW 11 19 6 10 1016.1 1013.2 0.0
27/10:00am 9.6 6.0 3.0 63 3.0 WSW 11 17 6 9 1016.2 1013.4 0.0
27/09:30am 9.1 5.3 3.9 70 2.4 SW 13 24 7 13 1015.8 1013.0 0.0
27/09:00am 8.1 3.9 3.7 74 2.0 SW 15 24 8 13 1015.7 1012.9 15.6
27/08:30am 7.3 3.5 3.8 78 1.6 SSW 13 20 7 11 1015.5 1012.7 15.6
27/08:00am 6.8 3.6 3.2 78 1.6 SSW 9 17 5 9 1014.9 1012.0 15.6
27/07:30am 5.7 2.5 3.0 83 1.2 SW 9 15 5 8 1014.6 1011.8 15.6
27/07:00am 4.7 1.4 2.6 86 0.9 WSW 9 15 5 8 1014.3 1011.5 15.6
27/06:30am 4.4 1.1 2.3 86 0.9 SW 9 13 5 7 1014.1 1011.3 15.6
27/06:00am 4.3 1.4 2.7 89 0.7 SW 7 11 4 6 1014.0 1011.1 15.6
27/05:30am 4.9 1.2 2.6 85 1.0 WSW 11 17 6 9 1013.9 1011.0 15.6
27/05:00am 5.0 1.7 2.7 85 1.0 SW 9 17 5 9 1014.0 1011.1 15.6
27/04:30am 5.2 1.9 2.4 82 1.2 WSW 9 19 5 10 1013.9 1011.0 15.6
27/04:00am 5.3 1.6 2.5 82 1.2 SW 11 19 6 10 1013.5 1010.6 15.6
27/03:30am 5.7 2.0 2.5 80 1.4 SW 11 17 6 9 1013.5 1010.6 15.6
27/03:00am 6.1 2.1 2.9 80 1.4 SW 13 22 7 12 1013.7 1010.8 15.6
27/02:30am 6.4 2.5 3.5 82 1.3 SW 13 20 7 11 1013.5 1010.6 15.6
27/02:00am 6.8 3.0 3.9 82 1.3 WSW 13 20 7 11 1013.5 1010.6 15.6
27/01:30am 7.4 3.6 4.1 79 1.5 WSW 13 26 7 14 1013.3 1010.5 15.6
27/01:00am 8.0 3.9 4.3 77 1.7 WSW 15 28 8 15 1013.7 1010.8 15.6
27/12:30am 8.6 4.5 4.3 74 2.0 WSW 15 26 8 14 1013.7 1010.8 15.6
27/12:00am 9.2 4.8 4.5 72 2.2 SW 17 30 9 16 1013.8 1010.9 15.6
 
Date/Time
EST
Temp
°C
App
Temp
°C
Dew
Point
°C
Rel
Hum
%
Delta-T
°C
Wind Press
QNH
hPa
Press
MSL
hPa
Rain since
9am
mm
Dir  Spd
km/h
Gust
km/h
Spd
kts
Gust
kts
26/11:30pm 9.6 5.4 5.9 78 1.8 SW 17 30 9 16 1013.7 1010.8 15.6
26/11:00pm 9.9 6.2 6.4 79 1.7 WSW 15 26 8 14 1013.7 1010.8 15.6
26/10:30pm 10.6 6.7 7.2 79 1.7 WSW 17 30 9 16 1013.5 1010.6 15.6
26/10:00pm 11.3 7.4 7.3 76 2.0 WSW 17 28 9 15 1013.3 1010.5 15.6
26/09:30pm 11.9 7.6 7.2 73 2.4 WSW 19 32 10 17 1013.3 1010.5 15.6
26/09:00pm 12.2 8.5 8.1 76 2.1 WSW 17 30 9 16 1013.3 1010.5 15.6
26/08:30pm 12.6 9.5 8.8 77 2.0 WSW 15 24 8 13 1013.0 1010.1 15.6
26/08:00pm 13.1 10.3 9.9 81 1.7 WSW 15 28 8 15 1012.9 1010.0 15.6
26/07:30pm 13.7 9.9 11.0 84 1.5 WSW 22 39 12 21 1012.4 1009.5 15.6
26/07:00pm 14.4 10.4 11.7 84 1.5 WSW 24 43 13 23 1012.1 1009.3 15.6
26/06:30pm 14.7 11.7 12.6 87 1.2 WSW 20 37 11 20 1011.9 1009.0 15.6
26/06:00pm 14.6 12.6 12.7 88 1.1 WSW 15 32 8 17 1011.7 1008.8 15.6
26/05:30pm 14.5 12.4 12.4 87 1.2 W 15 30 8 16 1011.2 1008.3 15.6
26/05:00pm 14.7 12.7 12.8 88 1.1 W 15 26 8 14 1010.9 1008.0 15.6
26/04:30pm 14.8 12.5 12.9 88 1.1 W 17 33 9 18 1010.9 1008.0 15.6
26/04:00pm 15.2 13.4 13.3 88 1.1 W 15 30 8 16 1010.9 1008.0 15.6
26/03:30pm 14.9 14.1 13.9 94 0.6 W 11 26 6 14 1011.2 1008.3 15.6
26/03:00pm 14.3 13.3 13.4 94 0.5 W 11 19 6 10 1011.4 1008.5 15.6
26/02:30pm 14.4 13.3 13.2 92 0.7 WSW 11 19 6 10 1011.7 1008.8 15.4
26/02:00pm 14.7 12.5 13.3 91 0.8 W 17 32 9 17 1011.8 1008.9 15.4
26/01:30pm 14.9 13.8 14.2 96 0.4 W 13 22 7 12 1011.8 1008.9 15.0
26/01:00pm 15.0 14.3 14.2 95 0.5 WNW 11 20 6 11 1012.1 1009.3 14.4
26/12:30pm 15.1 14.8 14.3 95 0.5 WNW 9 19 5 10 1012.7 1009.8 14.0
26/12:00pm 14.7 14.3 14.2 97 0.3 WNW 9 19 5 10 1013.1 1010.3 12.4
26/11:30am 14.9 15.1 14.1 95 0.5 NW 6 15 3 8 1013.7 1010.8 9.2
26/11:00am 14.6 14.7 13.9 96 0.4 WNW 6 17 3 9 1014.3 1011.5 6.8
26/10:30am 14.6 14.1 13.9 96 0.4 W 9 17 5 9 1015.1 1012.2 4.0
26/10:00am 14.9 15.1 14.1 95 0.5 NW 6 13 3 7 1015.1 1012.2 1.6
26/09:30am 14.5 14.3 13.6 94 0.5 WNW 7 15 4 8 1015.5 1012.7 0.8
26/09:00am 14.4 14.9 13.9 97 0.3 NW 4 7 2 4 1015.7 1012.9 17.6
26/08:30am 14.0 14.3 13.3 96 0.4 N 4 6 2 3 1015.4 1012.6 17.4
26/08:00am 13.8 14.0 13.1 96 0.4 NNW 4 7 2 4 1015.8 1013.0 15.8
26/07:30am 13.4 13.0 12.9 97 0.3 W 7 17 4 9 1016.6 1013.8 12.6
26/07:00am 13.3 13.0 12.8 97 0.3 WSW 6 9 3 5 1016.1 1013.2 1.4
26/06:30am 13.8 13.7 12.2 90 0.9 WSW 4 6 2 3 1015.8 1013.0 0.0
26/06:00am 14.1 13.5 12.3 89 1.0 SW 7 13 4 7 1016.0 1013.1 0.0
26/05:30am 13.9 14.6 12.1 89 1.0 CALM 0 2 0 1 1015.2 1012.4 0.0
26/05:00am 13.9 14.0 11.4 85 1.4 W 2 4 1 2 1015.4 1012.6 0.0
26/04:30am 13.9 14.3 11.4 85 1.4 CALM 0 4 0 2 1015.4 1012.6 0.0
26/04:00am 15.0 14.6 11.2 78 2.1 W 4 7 2 4 1015.4 1012.6 0.0
26/03:30am 15.3 13.9 11.0 75 2.4 WNW 9 15 5 8 1015.4 1012.6 0.0
26/03:00am 14.8 14.1 11.4 80 1.9 W 6 9 3 5 1016.0 1013.1 0.0
26/02:30am 14.9 14.2 11.3 79 2.0 WSW 6 15 3 8 1016.0 1013.1 0.0
26/02:00am 15.1 14.8 11.3 78 2.1 WNW 4 9 2 5 1016.0 1013.1 0.0
26/01:30am 15.1 14.3 11.2 77 2.2 NNW 6 11 3 6 1015.7 1012.9 0.0
26/01:00am 15.1 14.3 11.2 77 2.2 NNW 6 9 3 5 1016.1 1013.2 0.0
26/12:30am 15.2 14.2 11.1 76 2.3 NNW 7 15 4 8 1016.2 1013.4 0.0
26/12:00am 15.1 14.0 10.8 75 2.4 N 7 13 4 7 1016.5 1013.7 0.0
 
Date/Time
EST
Temp
°C
App
Temp
°C
Dew
Point
°C
Rel
Hum
%
Delta-T
°C
Wind Press
QNH
hPa
Press
MSL
hPa
Rain since
9am
mm
Dir  Spd
km/h
Gust
km/h
Spd
kts
Gust
kts
25/11:30pm 15.2 13.7 10.5 73 2.6 N 9 17 5 9 1016.7 1013.9 0.0
25/11:00pm 15.1 13.6 10.4 73 2.6 N 9 15 5 8 1016.9 1014.1 0.0
25/10:30pm 15.0 13.5 10.5 74 2.5 N 9 17 5 9 1017.3 1014.5 0.0
25/10:00pm 15.2 13.3 10.5 73 2.6 N 11 17 6 9 1017.3 1014.5 0.0
25/09:30pm 15.8 13.5 10.6 71 2.9 N 13 22 7 12 1017.6 1014.8 0.0
25/09:00pm 16.0 14.2 10.8 71 2.9 N 11 20 6 11 1017.8 1015.0 0.0
25/08:30pm 15.7 14.7 11.0 73 2.6 N 7 13 4 7 1018.1 1015.3 0.0
25/08:00pm 12.3 12.7 11.2 93 0.6 CALM 0 2 0 1 1018.3 1015.6 0.0
25/07:30pm 12.5 12.8 10.9 90 0.9 CALM 0 0 0 0 1018.3 1015.6 0.0
25/07:00pm 13.4 13.8 11.4 88 1.1 CALM 0 2 0 1 1017.9 1015.1 0.0
25/06:30pm 13.7 13.7 11.2 85 1.4 NE 2 4 1 2 1017.5 1014.7 0.0
25/06:00pm 15.9 15.5 11.1 73 2.7 N 4 4 2 2 1017.2 1014.4 0.0
25/05:30pm 17.9 16.8 9.9 59 4.4 N 6 9 3 5 1017.0 1014.2 0.0
25/05:00pm 19.3 18.2 9.8 54 5.3 N 6 11 3 6 1016.9 1014.1 0.0
25/04:30pm 20.4 18.6 9.6 50 6.0 N 9 13 5 7 1017.3 1014.5 0.0
25/04:00pm 20.8 19.5 9.9 49 6.1 N 7 13 4 7 1017.3 1014.5 0.0
25/03:30pm 21.5 20.7 9.7 47 6.6 NNW 4 9 2 5 1017.3 1014.5 0.0
25/03:00pm 21.6 20.2 9.4 45 6.8 WNW 7 13 4 7 1017.4 1014.6 0.0
25/02:30pm 21.7 20.4 9.1 44 7.0 W 6 9 3 5 1017.6 1014.8 0.0
25/02:00pm 22.0 20.7 9.3 44 7.1 WNW 6 13 3 7 1018.0 1015.2 0.0
25/01:30pm 21.1 19.6 9.0 46 6.7 NW 7 13 4 7 1018.2 1015.5 0.0
25/01:00pm 21.7 20.4 9.8 46 6.7 NNW 7 17 4 9 1018.7 1015.9 0.0
25/12:30pm 21.1 19.6 9.2 46 6.6 NW 7 19 4 10 1019.2 1016.5 0.0
25/12:00pm 20.7 19.3 8.9 46 6.5 NW 6 11 3 6 1019.8 1017.0 0.0
25/11:30am 21.0 19.9 10.0 49 6.2 NNW 6 11 3 6 1020.3 1017.6 0.0
25/11:00am 19.8 18.4 9.7 52 5.6 W 7 13 4 7 1020.7 1018.0 0.0
25/10:30am 19.6 18.6 8.8 49 5.9 NNW 4 9 2 5 1021.3 1018.6 0.0
25/10:00am 18.8 17.9 10.6 59 4.6 NNE 6 11 3 6 1021.6 1018.9 0.0
25/09:30am 17.3 17.2 12.1 71 3.0 NE 4 7 2 4 1021.7 1019.0 0.0
25/09:00am 15.2 14.9 11.6 79 2.0 NNE 4 6 2 3 1021.9 1019.2 0.0
25/08:30am 14.1 14.8 13.4 96 0.4 E 2 4 1 2 1021.8 1019.1 0.0
25/08:00am 13.2 13.7 12.8 97 0.2 NE 2 6 1 3 1021.7 1019.0 0.0
25/07:30am 12.3 12.1 11.9 97 0.2 NE 4 7 2 4 1021.5 1018.8 0.0
25/07:00am 11.9 12.0 11.5 97 0.2 NNE 2 6 1 3 1021.6 1018.9 0.0
25/06:30am 9.8 9.6 9.2 96 0.3 CALM 0 0 0 0 1021.2 1018.4 0.0
25/06:00am 8.8 8.5 8.8 100 0.0 CALM 0 0 0 0 1021.0 1018.2 0.0
25/05:30am 8.6 8.3 8.6 100 0.0 CALM 0 0 0 0 1020.9 1018.1 0.0
25/05:00am 8.6 8.2 8.2 97 0.2 CALM 0 0 0 0 1020.5 1017.8 0.0
25/04:30am 8.5 8.2 8.5 100 0.0 CALM 0 0 0 0 1020.3 1017.6 0.0
25/04:00am 8.4 8.0 8.4 100 0.0 CALM 0 0 0 0 1020.4 1017.7 0.0
25/03:30am 8.1 7.7 8.1 100 0.0 CALM 0 0 0 0 1020.6 1017.9 0.0
25/03:00am 8.4 8.0 8.4 100 0.0 CALM 0 0 0 0 1021.0 1018.2 0.0
25/02:30am 8.8 8.5 8.6 99 0.1 CALM 0 0 0 0 1021.0 1018.2 0.0
25/02:00am 9.0 8.7 8.8 99 0.1 CALM 0 0 0 0 1021.3 1018.6 0.0
25/01:30am 9.1 8.9 8.9 99 0.1 CALM 0 0 0 0 1021.5 1018.8 0.0
25/01:00am 9.0 8.8 9.0 100 0.0 CALM 0 0 0 0 1021.7 1019.0 0.0
25/12:30am 9.6 9.4 9.0 96 0.3 CALM 0 0 0 0 1022.0 1019.3 0.0
25/12:00am 10.1 10.1 9.7 97 0.2 CALM 0 0 0 0 1022.2 1019.4 0.0
 
Date/Time
EST
Temp
°C
App
Temp
°C
Dew
Point
°C
Rel
Hum
%
Delta-T
°C
Wind Press
QNH
hPa
Press
MSL
hPa
Rain since
9am
mm
Dir  Spd
km/h
Gust
km/h
Spd
kts
Gust
kts
24/11:30pm 9.7 9.2 9.5 99 0.1 NNE 2 4 1 2 1022.5 1019.8 0.0
24/11:00pm 9.9 9.9 9.7 99 0.1 CALM 0 0 0 0 1022.9 1020.2 0.0
24/10:30pm 10.1 10.1 9.7 97 0.2 CALM 0 0 0 0 1023.2 1020.6 0.0
24/10:00pm 10.8 11.0 10.4 97 0.2 CALM 0 0 0 0 1023.5 1020.8 0.0
24/09:30pm 10.9 10.6 10.1 95 0.4 N 2 4 1 2 1023.2 1020.6 0.0

Other Formats:

Comma delimited format used in spreadsheet applications
http://www.bom.gov.au/fwo/IDQ60801/IDQ60801.94553.axf

JavaScript Object Notation format (JSON) in row-major order
http://www.bom.gov.au/fwo/IDQ60801/IDQ60801.94553.json